createdAt,value
2022-10-26T00:01:22.122Z,75.76
2022-10-26T00:03:49.950Z,75.77
2022-10-26T00:06:19.661Z,75.37
2022-10-26T00:08:49.648Z,75.48
2022-10-26T00:11:17.445Z,75.45
2022-10-26T00:13:46.473Z,75.26
2022-10-26T00:16:16.529Z,75.52
2022-10-26T00:18:44.554Z,75.23
2022-10-26T00:21:13.037Z,75.59
2022-10-26T00:23:40.715Z,75.31
2022-10-26T00:26:10.254Z,75.51
2022-10-26T00:28:37.943Z,75.54
2022-10-26T00:31:07.971Z,75.78
2022-10-26T00:33:36.371Z,76.32
2022-10-26T00:36:04.085Z,76.22
2022-10-26T00:38:31.739Z,75.66
2022-10-26T00:40:59.422Z,76.03
2022-10-26T00:43:40.976Z,76.69
2022-10-26T00:46:15.001Z,76.14
2022-10-26T00:48:45.738Z,76.26
2022-10-26T00:51:18.523Z,76.13
2022-10-26T00:53:46.201Z,76.17
2022-10-26T00:56:14.073Z,76.31
2022-10-26T00:58:43.559Z,76.66
2022-10-26T01:01:11.696Z,76.55
2022-10-26T01:03:39.882Z,76.79
2022-10-26T01:06:08.192Z,76.72
2022-10-26T01:08:35.987Z,76.71
2022-10-26T01:11:04.537Z,77.00
2022-10-26T01:13:35.801Z,76.83
2022-10-26T01:16:30.411Z,76.80
2022-10-26T01:19:07.170Z,76.86
2022-10-26T01:21:45.393Z,77.12
2022-10-26T01:24:24.119Z,76.79
2022-10-26T01:27:05.640Z,77.03
2022-10-26T01:30:04.392Z,76.99
2022-10-26T01:32:35.721Z,77.11
2022-10-26T01:35:07.793Z,77.25
2022-10-26T01:37:40.409Z,77.15
2022-10-26T01:40:11.906Z,77.42
2022-10-26T01:42:43.660Z,77.29
2022-10-26T01:45:13.242Z,77.38
2022-10-26T01:47:42.288Z,77.60
2022-10-26T01:50:11.404Z,77.37
2022-10-26T01:52:39.327Z,77.46
2022-10-26T01:55:28.628Z,77.74
2022-10-26T01:58:04.229Z,77.80
2022-10-26T02:00:36.975Z,77.74
2022-10-26T02:03:13.823Z,78.09
2022-10-26T02:05:55.268Z,78.28
2022-10-26T02:08:29.515Z,77.97
2022-10-26T02:11:05.195Z,78.08
2022-10-26T02:13:36.704Z,78.32
2022-10-26T02:16:15.733Z,78.16
2022-10-26T02:18:48.518Z,78.11
2022-10-26T02:21:19.025Z,78.31
2022-10-26T02:23:49.152Z,78.32
2022-10-26T02:26:19.297Z,78.50
2022-10-26T02:28:49.692Z,78.53
2022-10-26T02:31:18.611Z,78.71
2022-10-26T02:36:25.787Z,79.02
2022-10-26T02:38:54.288Z,78.96
2022-10-26T02:41:23.170Z,79.23
2022-10-26T02:43:54.777Z,79.21
2022-10-26T02:46:24.745Z,79.13
2022-10-26T02:48:53.915Z,79.31
2022-10-26T02:51:27.844Z,79.12
2022-10-26T02:53:59.153Z,79.12
2022-10-26T02:56:29.737Z,79.01
2022-10-26T02:59:01.234Z,78.97
2022-10-26T03:01:29.680Z,79.24
2022-10-26T03:03:59.872Z,79.23
2022-10-26T03:06:27.720Z,79.43
2022-10-26T03:08:55.399Z,79.57
2022-10-26T03:11:23.052Z,79.64
2022-10-26T03:13:50.745Z,79.73
2022-10-26T03:16:19.380Z,79.86
2022-10-26T03:18:46.994Z,80.28
2022-10-26T03:21:16.120Z,80.15
2022-10-26T03:23:43.741Z,80.14
2022-10-26T03:26:11.390Z,80.04
2022-10-26T03:28:39.010Z,79.78
2022-10-26T03:31:07.268Z,80.15
2022-10-26T03:33:34.979Z,80.20
2022-10-26T03:36:02.722Z,79.92
2022-10-26T03:38:31.829Z,80.17
2022-10-26T03:40:59.434Z,80.15
2022-10-26T03:43:27.067Z,80.02
2022-10-26T03:45:54.705Z,80.20
2022-10-26T03:48:22.297Z,80.33
2022-10-26T03:50:49.943Z,80.34
2022-10-26T03:53:17.623Z,80.20
2022-10-26T03:55:46.825Z,80.35
2022-10-26T03:58:14.516Z,80.35
2022-10-26T04:00:42.206Z,80.14
2022-10-26T04:03:09.870Z,80.27
2022-10-26T04:05:37.496Z,80.31
2022-10-26T04:08:05.276Z,80.12
2022-10-26T04:10:33.019Z,80.33
2022-10-26T04:13:02.301Z,80.42
2022-10-26T04:15:30.205Z,80.38
2022-10-26T04:17:58.284Z,80.32
2022-10-26T04:20:26.327Z,80.54
2022-10-26T04:23:01.072Z,80.54
2022-10-26T04:25:31.843Z,80.40
2022-10-26T04:28:02.844Z,80.46
2022-10-26T04:30:31.106Z,80.55
2022-10-26T04:32:58.738Z,80.67
2022-10-26T04:35:26.399Z,80.41
2022-10-26T04:37:58.315Z,80.70
2022-10-26T04:40:26.003Z,80.74
2022-10-26T04:42:53.788Z,80.62
2022-10-26T04:45:23.015Z,80.77
2022-10-26T04:48:00.618Z,80.72
2022-10-26T04:50:28.733Z,80.48
2022-10-26T04:52:56.375Z,80.43
2022-10-26T04:55:24.084Z,80.72
2022-10-26T04:57:54.768Z,80.49
2022-10-26T05:00:26.750Z,80.73
2022-10-26T05:03:00.077Z,80.95
2022-10-26T05:05:27.860Z,80.72
2022-10-26T05:07:55.901Z,80.76
2022-10-26T05:10:23.531Z,80.80
2022-10-26T05:12:52.292Z,81.16
2022-10-26T05:15:20.165Z,80.91
2022-10-26T05:17:49.404Z,80.84
2022-10-26T05:20:17.216Z,81.00
2022-10-26T05:22:44.850Z,81.12
2022-10-26T05:25:12.461Z,80.98
2022-10-26T05:27:40.155Z,81.07
2022-10-26T05:30:09.006Z,80.93
2022-10-26T05:32:36.663Z,81.06
2022-10-26T05:35:06.562Z,81.30
2022-10-26T05:37:34.247Z,81.37
2022-10-26T05:40:01.902Z,81.38
2022-10-26T05:42:29.659Z,81.15
2022-10-26T05:44:57.270Z,80.91
2022-10-26T05:47:24.928Z,81.12
2022-10-26T05:49:52.527Z,81.18
2022-10-26T05:52:21.590Z,81.41
2022-10-26T05:54:49.312Z,81.29
2022-10-26T05:57:17.490Z,81.46
2022-10-26T05:59:45.756Z,81.39
2022-10-26T06:02:20.451Z,81.26
2022-10-26T06:04:48.945Z,81.13
2022-10-26T06:07:18.367Z,81.31
2022-10-26T06:09:48.722Z,81.11
2022-10-26T06:12:19.604Z,80.97
2022-10-26T06:14:48.359Z,80.95
2022-10-26T06:17:28.829Z,81.10
2022-10-26T06:20:08.656Z,80.97
2022-10-26T06:22:43.864Z,80.75
2022-10-26T06:25:22.476Z,80.66
2022-10-26T06:27:55.825Z,80.68
2022-10-26T06:30:23.988Z,80.87
2022-10-26T06:33:01.169Z,80.75
2022-10-26T06:35:37.711Z,80.54
2022-10-26T06:38:09.352Z,80.80
2022-10-26T06:40:40.693Z,80.89
2022-10-26T06:43:13.401Z,80.69
2022-10-26T06:45:42.456Z,80.75
2022-10-26T06:48:11.659Z,80.83
2022-10-26T06:50:44.209Z,80.60
2022-10-26T06:53:20.083Z,80.61
2022-10-26T06:55:51.053Z,80.67
2022-10-26T06:58:20.205Z,80.64
2022-10-26T07:00:49.725Z,80.73
2022-10-26T07:03:17.831Z,80.63
2022-10-26T07:05:45.898Z,80.76
2022-10-26T07:08:13.706Z,80.94
2022-10-26T07:10:42.272Z,80.79
2022-10-26T07:13:11.874Z,81.20
2022-10-26T07:15:40.571Z,80.99
2022-10-26T07:18:09.081Z,81.17
2022-10-26T07:20:38.400Z,81.44
2022-10-26T07:23:08.028Z,81.48
2022-10-26T07:25:38.960Z,81.65
2022-10-26T07:28:07.517Z,82.02
2022-10-26T07:30:36.641Z,82.21
2022-10-26T07:33:06.787Z,82.17
2022-10-26T07:35:34.628Z,82.55
2022-10-26T07:38:02.955Z,82.37
2022-10-26T07:40:30.748Z,82.60
2022-10-26T07:42:59.218Z,82.67
2022-10-26T07:45:27.687Z,82.71
2022-10-26T07:47:56.767Z,83.14
2022-10-26T07:50:25.023Z,83.32
2022-10-26T07:52:52.887Z,83.18
2022-10-26T07:55:20.800Z,83.36
2022-10-26T07:57:51.048Z,83.32
2022-10-26T08:00:22.496Z,83.84
2022-10-26T08:02:50.192Z,83.39
2022-10-26T08:05:19.350Z,83.63
2022-10-26T08:07:47.687Z,83.54
2022-10-26T08:10:16.573Z,83.72
2022-10-26T08:12:44.892Z,83.66
2022-10-26T08:15:12.833Z,84.03
2022-10-26T08:17:40.478Z,84.89
2022-10-26T08:20:09.129Z,84.32
2022-10-26T08:22:38.153Z,84.08
2022-10-26T08:25:06.510Z,84.28
2022-10-26T08:27:34.170Z,84.80
2022-10-26T08:30:01.875Z,85.25
2022-10-26T08:32:29.558Z,84.45
2022-10-26T08:34:57.205Z,84.21
2022-10-26T08:37:25.151Z,83.86
2022-10-26T08:39:55.870Z,83.77
2022-10-26T08:42:30.357Z,83.38
2022-10-26T08:45:00.595Z,83.62
2022-10-26T08:47:30.024Z,83.69
2022-10-26T08:50:01.018Z,82.32
2022-10-26T08:52:32.834Z,82.74
2022-10-26T08:55:04.273Z,81.95
2022-10-26T08:57:36.497Z,82.01
2022-10-26T09:00:06.209Z,82.63
2022-10-26T09:02:33.992Z,81.15
2022-10-26T09:05:01.851Z,81.52
2022-10-26T09:07:38.466Z,81.66
2022-10-26T09:10:17.908Z,81.51
2022-10-26T09:12:49.844Z,80.77
2022-10-26T09:15:25.652Z,80.61
2022-10-26T09:17:59.664Z,79.56
2022-10-26T09:20:42.017Z,79.25
2022-10-26T09:23:20.792Z,78.59
2022-10-26T09:25:56.283Z,78.52
2022-10-26T09:28:24.095Z,78.63
2022-10-26T09:30:58.804Z,77.69
2022-10-26T09:33:26.892Z,77.29
2022-10-26T09:36:00.243Z,78.25
2022-10-26T09:38:30.868Z,77.39
2022-10-26T09:41:04.063Z,78.29
2022-10-26T09:43:37.277Z,77.71
2022-10-26T09:46:05.001Z,77.52
2022-10-26T09:48:36.567Z,78.74
2022-10-26T09:51:04.954Z,78.96
2022-10-26T09:53:32.745Z,78.63
2022-10-26T09:56:06.301Z,77.64
2022-10-26T09:58:37.271Z,77.78
2022-10-26T10:01:05.134Z,78.35
2022-10-26T10:03:33.460Z,77.16
2022-10-26T10:06:17.480Z,77.79
2022-10-26T10:08:46.517Z,77.50
2022-10-26T10:11:16.441Z,77.47
2022-10-26T10:13:45.410Z,77.56
2022-10-26T10:16:21.058Z,77.54
2022-10-26T10:18:54.475Z,77.93
2022-10-26T10:21:22.571Z,77.33
2022-10-26T10:23:53.306Z,76.46
2022-10-26T10:26:22.309Z,76.95
2022-10-26T10:28:58.294Z,76.52
2022-10-26T10:31:29.618Z,78.10
2022-10-26T10:33:57.252Z,77.00
2022-10-26T10:36:29.313Z,76.76
2022-10-26T10:38:57.534Z,76.20
2022-10-26T10:41:29.941Z,77.36
2022-10-26T10:44:07.261Z,76.22
2022-10-26T10:46:35.217Z,76.70
2022-10-26T10:49:04.670Z,75.67
2022-10-26T10:51:37.773Z,75.99
2022-10-26T10:54:06.295Z,77.29
2022-10-26T10:56:42.070Z,75.31
2022-10-26T10:59:21.075Z,76.04
2022-10-26T11:01:51.213Z,75.49
2022-10-26T11:04:37.346Z,76.51
2022-10-26T11:07:06.374Z,76.57
2022-10-26T11:09:37.500Z,74.89
2022-10-26T11:12:11.128Z,75.06
2022-10-26T11:14:43.289Z,74.82
2022-10-26T11:17:18.006Z,77.13
2022-10-26T11:19:49.573Z,78.16
2022-10-26T11:22:22.343Z,76.28
2022-10-26T11:24:51.716Z,77.52
2022-10-26T11:27:25.117Z,78.02
2022-10-26T11:29:56.207Z,76.44
2022-10-26T11:32:25.434Z,76.81
2022-10-26T11:34:56.901Z,74.57
2022-10-26T11:37:29.014Z,74.57
2022-10-26T11:40:03.834Z,74.57
2022-10-26T11:42:37.526Z,74.17
2022-10-26T11:45:11.467Z,73.40
2022-10-26T11:47:42.897Z,73.70
2022-10-26T11:50:17.622Z,74.61
2022-10-26T11:52:49.450Z,73.94
2022-10-26T11:55:18.347Z,75.29
2022-10-26T11:57:48.005Z,75.17
2022-10-26T12:00:18.170Z,73.91
2022-10-26T12:02:49.660Z,75.05
2022-10-26T12:05:24.539Z,74.52
2022-10-26T12:07:54.647Z,73.86
2022-10-26T12:10:31.142Z,74.62
2022-10-26T12:13:05.870Z,73.99
2022-10-26T12:16:01.761Z,73.91
2022-10-26T12:18:50.374Z,73.93
2022-10-26T12:21:18.268Z,73.91
2022-10-26T12:23:56.182Z,74.78
2022-10-26T12:26:54.499Z,75.31
2022-10-26T12:29:38.114Z,75.65
2022-10-26T12:32:29.077Z,75.69
2022-10-26T12:35:01.899Z,75.98
2022-10-26T12:37:37.866Z,75.45
2022-10-26T12:40:40.726Z,75.45
2022-10-26T12:43:36.043Z,76.23
2022-10-26T12:46:43.362Z,75.63
2022-10-26T12:49:58.749Z,76.10
2022-10-26T12:52:34.152Z,76.83
2022-10-26T12:55:25.059Z,76.65
2022-10-26T12:57:59.971Z,76.54
2022-10-26T13:00:28.711Z,76.25
2022-10-26T13:03:08.035Z,76.38
2022-10-26T13:05:58.683Z,75.76
2022-10-26T13:08:28.601Z,75.33
2022-10-26T13:11:04.682Z,76.39
2022-10-26T13:13:33.378Z,76.63
2022-10-26T13:16:01.857Z,76.64
2022-10-26T13:18:30.676Z,76.83
2022-10-26T13:21:11.560Z,77.05
2022-10-26T13:23:42.007Z,76.37
2022-10-26T13:26:12.595Z,77.34
2022-10-26T13:28:51.250Z,77.58
2022-10-26T13:31:55.704Z,77.12
2022-10-26T13:34:24.454Z,77.50
2022-10-26T13:36:55.175Z,78.21
2022-10-26T13:39:27.471Z,77.00
2022-10-26T13:41:55.751Z,76.11
2022-10-26T13:44:26.967Z,75.47
2022-10-26T13:46:59.302Z,75.22
2022-10-26T13:49:31.466Z,75.34
2022-10-26T13:52:02.542Z,76.35
2022-10-26T13:54:36.572Z,75.19
2022-10-26T13:57:14.008Z,74.83
2022-10-26T13:59:44.695Z,74.58
2022-10-26T14:02:18.544Z,74.30
2022-10-26T14:04:49.774Z,74.86
2022-10-26T14:07:22.795Z,74.32
2022-10-26T14:09:57.513Z,74.69
2022-10-26T14:12:26.086Z,75.42
2022-10-26T14:14:54.900Z,74.73
2022-10-26T14:17:25.432Z,76.32
2022-10-26T14:19:53.754Z,76.22
2022-10-26T14:22:23.888Z,76.10
2022-10-26T14:24:53.072Z,77.63
2022-10-26T14:27:23.995Z,75.65
2022-10-26T14:32:39.939Z,76.21
2022-10-26T14:35:13.161Z,76.34
2022-10-26T14:37:45.285Z,78.07
2022-10-26T14:40:17.344Z,77.62
2022-10-26T14:42:50.548Z,78.14
2022-10-26T14:45:47.237Z,77.55
2022-10-26T14:48:22.697Z,76.30
2022-10-26T14:51:07.806Z,77.62
2022-10-26T14:53:38.139Z,77.75
2022-10-26T14:56:07.237Z,78.34
2022-10-26T14:58:36.974Z,77.48
2022-10-26T15:01:27.516Z,77.52
2022-10-26T15:03:58.401Z,77.70
2022-10-26T15:06:38.227Z,77.54
2022-10-26T15:09:06.870Z,78.04
2022-10-26T15:11:35.815Z,77.77
2022-10-26T15:14:04.915Z,77.92
2022-10-26T15:16:35.648Z,77.68
2022-10-26T15:19:10.985Z,77.78
2022-10-26T15:21:41.091Z,77.46
2022-10-26T15:24:33.151Z,77.94
2022-10-26T15:27:05.366Z,77.92
2022-10-26T15:29:42.825Z,78.10
2022-10-26T15:34:14.570Z,78.92
2022-10-26T15:36:43.562Z,79.24
2022-10-26T15:39:11.568Z,78.91
2022-10-26T15:41:45.893Z,79.18
2022-10-26T15:44:16.122Z,79.04
2022-10-26T15:46:44.109Z,79.41
2022-10-26T15:49:18.720Z,79.56
2022-10-26T15:51:47.583Z,79.63
2022-10-26T15:54:15.833Z,79.38
2022-10-26T15:56:44.736Z,80.04
2022-10-26T15:59:15.496Z,79.64
2022-10-26T16:01:43.233Z,80.08
2022-10-26T16:04:12.176Z,79.83
2022-10-26T16:06:42.888Z,80.13
2022-10-26T16:09:14.287Z,80.31
2022-10-26T16:11:41.965Z,80.18
2022-10-26T16:14:10.079Z,80.48
2022-10-26T16:16:38.976Z,80.55
2022-10-26T16:19:29.283Z,80.34
2022-10-26T16:21:55.766Z,80.19
2022-10-26T16:24:23.616Z,80.15
2022-10-26T16:26:51.382Z,80.39
2022-10-26T16:29:19.423Z,80.21
2022-10-26T16:31:47.126Z,80.59
2022-10-26T16:34:15.170Z,80.25
2022-10-26T16:36:42.834Z,80.51
2022-10-26T16:39:13.181Z,80.37
2022-10-26T16:41:40.858Z,80.80
2022-10-26T16:44:08.557Z,80.94
2022-10-26T16:46:36.234Z,80.90
2022-10-26T16:49:03.874Z,80.56
2022-10-26T16:51:31.807Z,80.86
2022-10-26T16:53:59.461Z,80.62
2022-10-26T16:56:30.282Z,80.62
2022-10-26T16:58:58.489Z,80.89
2022-10-26T17:01:26.607Z,81.54
2022-10-26T17:03:54.629Z,81.48
2022-10-26T17:06:22.695Z,81.41
2022-10-26T17:08:50.334Z,81.87
2022-10-26T17:11:19.640Z,81.81
2022-10-26T17:13:49.203Z,82.04
2022-10-26T17:16:20.716Z,82.20
2022-10-26T17:18:48.914Z,81.79
2022-10-26T17:21:17.661Z,82.28
2022-10-26T17:23:45.325Z,82.44
2022-10-26T17:26:14.641Z,82.46
2022-10-26T17:28:42.485Z,82.73
2022-10-26T17:31:13.503Z,83.15
2022-10-26T17:33:42.751Z,83.37
2022-10-26T17:36:11.926Z,83.25
2022-10-26T17:38:40.608Z,83.29
2022-10-26T17:41:10.087Z,83.17
2022-10-26T17:43:39.334Z,83.55
2022-10-26T17:46:08.106Z,83.23
2022-10-26T17:48:37.316Z,83.34
2022-10-26T17:51:07.121Z,83.61
2022-10-26T17:53:34.751Z,83.38
2022-10-26T17:56:02.992Z,83.58
2022-10-26T17:58:30.678Z,83.59
2022-10-26T18:01:01.519Z,83.19
2022-10-26T18:03:29.283Z,83.45
2022-10-26T18:07:32.115Z,83.02
2022-10-26T18:10:13.903Z,83.07
2022-10-26T18:12:47.329Z,82.87
2022-10-26T18:15:15.013Z,82.67
2022-10-26T18:17:42.726Z,83.00
2022-10-26T18:20:11.124Z,83.04
2022-10-26T18:22:40.179Z,82.48
2022-10-26T18:25:08.425Z,82.63
2022-10-26T18:27:36.055Z,82.87
2022-10-26T18:30:03.747Z,82.56
2022-10-26T18:32:31.448Z,82.82
2022-10-26T18:34:59.042Z,82.20
2022-10-26T18:37:26.835Z,82.05
2022-10-26T18:39:55.926Z,82.21
2022-10-26T18:42:23.601Z,82.03
2022-10-26T18:44:51.332Z,82.41
2022-10-26T18:47:19.127Z,82.20
2022-10-26T18:49:46.773Z,82.02
2022-10-26T18:52:14.407Z,82.01
2022-10-26T18:54:42.177Z,82.25
2022-10-26T18:57:11.162Z,82.04
2022-10-26T18:59:38.826Z,82.28
2022-10-26T19:04:34.013Z,82.22
2022-10-26T19:07:01.676Z,82.08
2022-10-26T19:09:29.382Z,82.10
2022-10-26T19:11:59.006Z,81.87
2022-10-26T19:14:30.523Z,81.79
2022-10-26T19:16:58.254Z,81.86
2022-10-26T19:19:26.073Z,81.68
2022-10-26T19:21:53.967Z,81.72
2022-10-26T19:24:23.714Z,81.76
2022-10-26T19:26:52.139Z,81.82
2022-10-26T19:29:20.687Z,81.85
2022-10-26T19:31:52.660Z,81.63
2022-10-26T19:34:20.587Z,81.69
2022-10-26T19:36:48.459Z,81.59
2022-10-26T19:39:16.864Z,81.41
2022-10-26T19:41:45.583Z,81.54
2022-10-26T19:44:14.573Z,81.44
2022-10-26T19:46:43.255Z,81.42
2022-10-26T19:49:13.562Z,81.59
2022-10-26T19:51:41.225Z,81.07
2022-10-26T19:54:08.923Z,81.36
2022-10-26T19:56:37.839Z,81.39
2022-10-26T19:59:05.851Z,81.47
2022-10-26T20:01:33.741Z,81.37
2022-10-26T20:04:03.096Z,81.44
2022-10-26T20:06:32.216Z,81.46
2022-10-26T20:09:00.250Z,81.69
2022-10-26T20:11:28.073Z,81.32
2022-10-26T20:13:56.494Z,81.62
2022-10-26T20:16:24.388Z,81.45
2022-10-26T20:18:52.045Z,81.47
2022-10-26T20:21:19.658Z,81.20
2022-10-26T20:23:48.843Z,81.56
2022-10-26T20:26:19.550Z,81.72
2022-10-26T20:28:47.919Z,81.43
2022-10-26T20:31:15.847Z,81.26
2022-10-26T20:33:43.656Z,81.28
2022-10-26T20:36:11.313Z,81.44
2022-10-26T20:38:40.148Z,81.37
2022-10-26T20:41:11.730Z,81.40
2022-10-26T20:43:39.971Z,81.52
2022-10-26T20:46:08.355Z,81.56
2022-10-26T20:48:38.536Z,81.66
2022-10-26T20:51:08.417Z,81.79
2022-10-26T20:53:37.256Z,81.34
2022-10-26T20:56:07.879Z,81.39
2022-10-26T20:58:40.890Z,81.31
2022-10-26T21:01:13.568Z,81.32
2022-10-26T21:03:41.238Z,81.57
2022-10-26T21:06:11.250Z,81.50
2022-10-26T21:08:38.984Z,81.53
2022-10-26T21:11:06.940Z,81.42
2022-10-26T21:13:34.595Z,81.59
2022-10-26T21:16:06.148Z,81.58
2022-10-26T21:18:33.859Z,81.28
2022-10-26T21:21:01.839Z,81.38
2022-10-26T21:23:32.592Z,81.50
2022-10-26T21:26:00.650Z,81.69
2022-10-26T21:28:33.282Z,81.75
2022-10-26T21:31:02.601Z,82.02
2022-10-26T21:33:32.235Z,82.16
2022-10-26T21:36:00.043Z,82.14
2022-10-26T21:38:27.928Z,82.17
2022-10-26T21:41:03.611Z,81.94
2022-10-26T21:43:31.435Z,82.11
2022-10-26T21:45:59.413Z,82.01
2022-10-26T21:48:27.707Z,82.29
2022-10-26T21:50:57.134Z,82.22
2022-10-26T21:53:24.891Z,82.01
2022-10-26T21:56:00.423Z,82.26
2022-10-26T21:58:28.121Z,82.15
2022-10-26T22:00:55.870Z,82.74
2022-10-26T22:03:23.634Z,82.50
2022-10-26T22:05:54.124Z,82.73
2022-10-26T22:08:23.152Z,82.27
2022-10-26T22:10:50.919Z,81.83
2022-10-26T22:13:18.666Z,82.31
2022-10-26T22:15:46.306Z,82.15
2022-10-26T22:18:13.941Z,82.30
2022-10-26T22:20:41.591Z,82.41
2022-10-26T22:23:10.257Z,82.38
2022-10-26T22:25:39.399Z,82.39
2022-10-26T22:28:07.026Z,82.29
2022-10-26T22:30:37.565Z,82.59
2022-10-26T22:33:05.290Z,82.31
2022-10-26T22:35:32.971Z,82.42
2022-10-26T22:38:00.602Z,82.40
2022-10-26T22:40:28.327Z,82.39
2022-10-26T22:42:57.371Z,82.36
2022-10-26T22:45:25.103Z,82.21
2022-10-26T22:47:52.754Z,82.13
2022-10-26T22:50:20.371Z,82.01
2022-10-26T22:52:48.186Z,82.00
2022-10-26T22:55:16.187Z,82.40
2022-10-26T22:57:43.814Z,81.86
2022-10-26T23:00:14.543Z,82.10
2022-10-26T23:02:42.154Z,82.03
2022-10-26T23:05:10.270Z,82.07
2022-10-26T23:07:37.914Z,82.33
2022-10-26T23:10:06.256Z,82.53
2022-10-26T23:12:33.918Z,82.62
2022-10-26T23:15:01.577Z,82.97
2022-10-26T23:17:30.842Z,82.93
2022-10-26T23:19:58.566Z,82.72
2022-10-26T23:22:26.255Z,82.47
2022-10-26T23:24:53.903Z,82.61
2022-10-26T23:27:21.545Z,82.25
2022-10-26T23:29:49.168Z,82.23
2022-10-26T23:32:16.809Z,82.65
2022-10-26T23:34:45.859Z,82.75
2022-10-26T23:37:13.514Z,82.52
2022-10-26T23:39:41.166Z,82.89
2022-10-26T23:42:08.832Z,82.98
2022-10-26T23:44:36.512Z,82.90
2022-10-26T23:47:04.194Z,82.66
2022-10-26T23:49:32.269Z,82.60
2022-10-26T23:52:01.309Z,82.57
2022-10-26T23:54:28.950Z,82.91
2022-10-26T23:56:56.580Z,82.75
2022-10-26T23:59:24.221Z,82.68
